Juliana Airport, Saint Maartin

2:03 AM AST on September 19, 2014 (GMT -0400)
Cole Bay, St.Maarten | Change Station
CLOSE
Current Station
Personal Weather Station
Location: Cole Bay, SINT MAARTEN
Elevation: 171 ft
Nearby Weather Stations

Elev 171 ft 18.04 °N, 63.08 °W | Updated 2 minutes ago

Partly Cloudy
Partly Cloudy
80.8 °F
Feels Like 86 °F
N
2.0
Wind Variable Wind from NNE
Gusts 5.0 mph

Today
High -- | Low -- °F
--% Chance of Precip.
Yesterday
High -- | Low -- °F
Precip. -- in
6:00 AM 6:11 PM
Waning Crescent, 21% visible
Pressure 29.95 in
Visibility 6.2 miles
Clouds Few 1800 ft
Heat Index 86 °F
Dew Point 75 °F
Humidity 82%
Rainfall 0.00 in
Snow Depth Not available.
UV 0 out of 12
Pollen Not available.
Air Quality Not available.
Flu Activity Not available.
METAR TNCM 190500Z 08008KT 9999 VCTS FEW018 FEW///CB 29/24 Q1014 A2996 RETS RMK LTG VIS NE

More Conditions Fewer Conditions

Pressure 29.95 in
Visibility 6.2 miles
Clouds Few 1800 ft
Heat Index 86 °F
Dew Point 75 °F
Humidity 82%
Rainfall 0.00 in
Snow Depth Not available.
UV 0 out of 12
Pollen Not available.
Air Quality Not available.
Flu Activity Not available.
METAR TNCM 190500Z 08008KT 9999 VCTS FEW018 FEW///CB 29/24 Q1014 A2996 RETS RMK LTG VIS NE

More Conditions Fewer Conditions

10-Day Weather Forecast

Almanac

Astronomy

Sep. 19, 2014 Rise Set
Actual Time 6:00 AM AST 6:11 PM AST
Civil Twilight 5:39 AM AST 6:33 PM AST
Nautical Twilight 5:13 AM AST 6:58 PM AST
Astronomical Twilight 4:48 AM AST 7:23 PM AST
Moon 2:11 AM AST 3:11 PM AST
Length of Visible Light 12h 53m
Length of Day
12h 10m
Tomorrow will be 1m 1s shorter.
Waning Crescent, 21% of the Moon is Illuminated
Today
Waning Crescent
Sep 24
New
Oct 1
First Quarter
Oct 8
Full
Oct 15
Last Quarter

Yesterday's Extremes

Country Highs Country Lows

Community

WunderPhotos

Upload Photos

1,754,575 photos uploaded!

Nearby

Snow Depth

Not available.

Earthquake Activity

City Distance Mag. Time & Date
No recent earthquake activity has been reported nearby.
Minimum magnitude displayed is 2.5.

Coastal Water Temperatures

Place Temperature
No Stations Reporting

Nearby Weather Stations